createdAt,value
2022-11-22T00:00:25.592Z,92522.09
2022-11-22T00:02:52.540Z,92530.41
2022-11-22T00:05:19.595Z,92520.81
2022-11-22T00:07:46.506Z,92522.78
2022-11-22T00:10:15.154Z,92523.19
2022-11-22T00:12:42.326Z,92521.69
2022-11-22T00:15:09.756Z,92516.88
2022-11-22T00:17:36.847Z,92513.91
2022-11-22T00:20:04.954Z,92510.78
2022-11-22T00:22:32.430Z,92516.28
2022-11-22T00:24:59.296Z,92496.94
2022-11-22T00:27:26.027Z,92507.84
2022-11-22T00:29:52.822Z,92509.97
2022-11-22T00:32:19.457Z,92504.94
2022-11-22T00:34:46.103Z,92505.91
2022-11-22T00:37:12.817Z,92506.16
2022-11-22T00:39:39.419Z,92511.47
2022-11-22T00:42:06.315Z,92514.03
2022-11-22T00:44:33.038Z,92503.59
2022-11-22T00:46:59.647Z,92508.94
2022-11-22T00:49:26.381Z,92515.44
2022-11-22T00:51:53.102Z,92507.84
2022-11-22T00:54:19.816Z,92510.50
2022-11-22T00:56:46.522Z,92499.34
2022-11-22T00:59:13.530Z,92512.44
2022-11-22T01:01:40.293Z,92508.16
2022-11-22T01:04:07.105Z,92504.25
2022-11-22T01:06:33.784Z,92509.75
2022-11-22T01:09:00.499Z,92512.06
2022-11-22T01:11:27.217Z,92507.16
2022-11-22T01:13:53.894Z,92520.69
2022-11-22T01:16:20.626Z,92515.41
2022-11-22T01:18:47.321Z,92512.81
2022-11-22T01:21:14.039Z,92512.28
2022-11-22T01:23:40.772Z,92507.19
2022-11-22T01:26:09.134Z,92496.03
2022-11-22T01:28:36.749Z,92507.44
2022-11-22T01:31:03.608Z,92485.34
2022-11-22T01:33:30.347Z,92489.72
2022-11-22T01:35:58.321Z,92482.59
2022-11-22T01:38:25.418Z,92480.94
2022-11-22T01:40:52.962Z,92487.41
2022-11-22T01:43:28.051Z,92480.03
2022-11-22T01:45:58.914Z,92479.84
2022-11-22T01:48:36.917Z,92478.22
2022-11-22T01:51:10.209Z,92470.16
2022-11-22T01:53:39.337Z,92460.75
2022-11-22T01:56:17.173Z,92464.53
2022-11-22T01:58:45.414Z,92468.22
2022-11-22T02:01:12.328Z,92470.53
2022-11-22T02:03:41.736Z,92461.19
2022-11-22T02:06:08.664Z,92457.19
2022-11-22T02:08:56.375Z,92465.50
2022-11-22T02:11:24.137Z,92456.75
2022-11-22T02:13:52.004Z,92453.44
2022-11-22T02:16:19.148Z,92456.22
2022-11-22T02:18:45.856Z,92445.63
2022-11-22T02:21:12.694Z,92453.91
2022-11-22T02:23:53.422Z,92445.50
2022-11-22T02:26:21.124Z,92450.41
2022-11-22T02:28:48.176Z,92440.81
2022-11-22T02:31:45.313Z,92450.00
2022-11-22T02:34:12.611Z,92438.25
2022-11-22T02:36:45.715Z,92430.81
2022-11-22T02:39:15.350Z,92437.53
2022-11-22T02:41:42.293Z,92419.88
2022-11-22T02:44:10.016Z,92420.91
2022-11-22T02:46:36.796Z,92421.44
2022-11-22T02:49:03.505Z,92413.59
2022-11-22T02:51:30.347Z,92394.03
2022-11-22T02:53:57.126Z,92403.25
2022-11-22T02:56:23.863Z,92393.84
2022-11-22T02:58:50.575Z,92390.38
2022-11-22T03:01:17.352Z,92388.59
2022-11-22T03:03:44.217Z,92388.22
2022-11-22T03:06:10.868Z,92388.94
2022-11-22T03:08:37.613Z,92392.09
2022-11-22T03:11:04.305Z,92390.56
2022-11-22T03:13:30.963Z,92392.88
2022-11-22T03:15:57.705Z,92392.88
2022-11-22T03:18:24.366Z,92401.88
2022-11-22T03:20:51.056Z,92408.53
2022-11-22T03:23:17.857Z,92410.13
2022-11-22T03:25:44.575Z,92413.28
2022-11-22T03:28:11.233Z,92414.84
2022-11-22T03:30:42.105Z,92436.22
2022-11-22T03:33:08.895Z,92433.25
2022-11-22T03:35:35.937Z,92431.69
2022-11-22T03:38:02.825Z,92423.69
2022-11-22T03:40:29.589Z,92405.88
2022-11-22T03:42:59.218Z,92406.66
2022-11-22T03:45:26.246Z,92397.84
2022-11-22T03:47:53.005Z,92391.94
2022-11-22T03:50:19.748Z,92398.03
2022-11-22T03:52:46.481Z,92401.56
2022-11-22T03:55:13.195Z,92392.94
2022-11-22T03:57:39.890Z,92398.44
2022-11-22T04:00:07.334Z,92388.22
2022-11-22T04:02:33.956Z,92393.53
2022-11-22T04:05:00.716Z,92390.97
2022-11-22T04:07:27.483Z,92390.38
2022-11-22T04:09:54.181Z,92394.50
2022-11-22T04:12:20.916Z,92381.19
2022-11-22T04:15:06.327Z,92392.16
2022-11-22T04:17:48.023Z,92382.56
2022-11-22T04:20:40.427Z,92392.94
2022-11-22T04:23:11.261Z,92379.22
2022-11-22T04:25:40.675Z,92387.84
2022-11-22T04:28:08.345Z,92367.03
2022-11-22T04:30:55.225Z,92359.19
2022-11-22T04:33:22.585Z,92379.81
2022-11-22T04:35:49.776Z,92377.25
2022-11-22T04:38:17.479Z,92372.16
2022-11-22T04:40:44.485Z,92371.78
2022-11-22T04:43:42.685Z,92363.16
2022-11-22T04:46:09.906Z,92364.34
2022-11-22T04:48:36.707Z,92369.22
2022-11-22T04:51:22.744Z,92365.13
2022-11-22T04:53:49.496Z,92356.50
2022-11-22T04:56:16.274Z,92367.47
2022-11-22T04:58:43.065Z,92354.53
2022-11-22T05:01:10.022Z,92364.13
2022-11-22T05:03:36.915Z,92349.44
2022-11-22T05:06:05.324Z,92357.88
2022-11-22T05:08:32.389Z,92361.19
2022-11-22T05:10:59.739Z,92364.72
2022-11-22T05:13:40.260Z,92366.09
2022-11-22T05:16:09.318Z,92370.59
2022-11-22T05:18:36.688Z,92365.53
2022-11-22T05:21:08.618Z,92351.19
2022-11-22T05:23:53.690Z,92357.66
2022-11-22T05:26:24.729Z,92352.56
2022-11-22T05:28:51.860Z,92353.34
2022-11-22T05:31:24.343Z,92356.88
2022-11-22T05:33:52.570Z,92371.59
2022-11-22T05:36:20.328Z,92385.91
2022-11-22T05:38:47.622Z,92388.66
2022-11-22T05:41:15.261Z,92394.16
2022-11-22T05:43:41.927Z,92401.63
2022-11-22T05:46:16.226Z,92389.84
2022-11-22T05:48:47.173Z,92392.97
2022-11-22T05:51:16.055Z,92394.34
2022-11-22T05:53:43.161Z,92386.88
2022-11-22T05:56:20.754Z,92390.59
2022-11-22T05:58:47.734Z,92400.81
2022-11-22T06:01:16.662Z,92399.63
2022-11-22T06:03:43.643Z,92394.72
2022-11-22T06:06:10.765Z,92399.44
2022-11-22T06:08:41.206Z,92390.59
2022-11-22T06:11:28.137Z,92397.47
2022-11-22T06:14:00.461Z,92382.38
2022-11-22T06:16:27.584Z,92398.44
2022-11-22T06:18:54.693Z,92396.88
2022-11-22T06:21:26.121Z,92389.81
2022-11-22T06:23:56.122Z,92393.56
2022-11-22T06:26:24.206Z,92395.13
2022-11-22T06:28:51.222Z,92388.06
2022-11-22T06:31:25.795Z,92385.13
2022-11-22T06:33:57.512Z,92389.41
2022-11-22T06:36:26.233Z,92382.16
2022-11-22T06:38:53.127Z,92383.53
2022-11-22T06:41:22.583Z,92381.19
2022-11-22T06:43:50.423Z,92361.16
2022-11-22T06:46:19.210Z,92378.00
2022-11-22T06:48:46.330Z,92374.88
2022-11-22T06:51:23.851Z,92384.31
2022-11-22T06:53:51.004Z,92385.72
2022-11-22T06:56:20.392Z,92392.56
2022-11-22T06:58:49.065Z,92395.91
2022-11-22T07:01:19.167Z,92392.97
2022-11-22T07:03:46.935Z,92393.75
2022-11-22T07:06:14.921Z,92393.34
2022-11-22T07:08:42.352Z,92388.84
2022-11-22T07:11:10.391Z,92378.59
2022-11-22T07:13:37.693Z,92371.91
2022-11-22T07:16:06.792Z,92374.38
2022-11-22T07:18:34.351Z,92381.59
2022-11-22T07:21:13.393Z,92408.38
2022-11-22T07:23:42.258Z,92424.94
2022-11-22T07:26:09.443Z,92422.00
2022-11-22T07:28:36.394Z,92425.50
2022-11-22T07:31:04.833Z,92439.28
2022-11-22T07:33:32.278Z,92437.13
2022-11-22T07:36:10.663Z,92446.50
2022-11-22T07:38:37.951Z,92454.53
2022-11-22T07:41:05.661Z,92450.22
2022-11-22T07:43:32.932Z,92451.59
2022-11-22T07:46:00.652Z,92455.28
2022-11-22T07:48:27.443Z,92450.16
2022-11-22T07:50:54.634Z,92439.69
2022-11-22T07:53:21.623Z,92444.59
2022-11-22T07:55:48.418Z,92443.44
2022-11-22T07:58:15.282Z,92442.09
2022-11-22T08:00:42.237Z,92454.28
2022-11-22T08:03:09.287Z,92443.88
2022-11-22T08:05:36.017Z,92447.41
2022-11-22T08:08:02.786Z,92454.81
2022-11-22T08:10:29.553Z,92465.00
2022-11-22T08:12:59.942Z,92466.63
2022-11-22T08:15:26.765Z,92477.63
2022-11-22T08:17:53.502Z,92484.31
2022-11-22T08:20:20.309Z,92482.16
2022-11-22T08:22:46.995Z,92483.47
2022-11-22T08:25:13.844Z,92488.03
2022-11-22T08:27:41.690Z,92493.56
2022-11-22T08:30:09.626Z,92493.75
2022-11-22T08:32:36.521Z,92498.06
2022-11-22T08:35:03.479Z,92494.13
2022-11-22T08:37:30.284Z,92488.38
2022-11-22T08:39:57.190Z,92492.13
2022-11-22T08:42:23.982Z,92511.41
2022-11-22T08:44:50.811Z,92506.28
2022-11-22T08:47:17.693Z,92506.66
2022-11-22T08:49:44.443Z,92508.63
2022-11-22T08:52:11.192Z,92504.72
2022-11-22T08:54:38.425Z,92512.38
2022-11-22T08:57:05.647Z,92511.97
2022-11-22T08:59:33.253Z,92495.66
2022-11-22T09:02:00.816Z,92505.50
2022-11-22T09:04:27.720Z,92512.50
2022-11-22T09:09:41.277Z,92515.66
2022-11-22T09:12:08.261Z,92524.72
2022-11-22T09:14:35.313Z,92535.34
2022-11-22T09:17:02.062Z,92532.22
2022-11-22T09:19:29.002Z,92538.47
2022-11-22T09:21:55.918Z,92540.69
2022-11-22T09:24:22.643Z,92536.94
2022-11-22T09:26:49.513Z,92538.72
2022-11-22T09:29:16.171Z,92532.03
2022-11-22T09:31:43.127Z,92529.50
2022-11-22T09:34:09.816Z,92533.63
2022-11-22T09:36:36.715Z,92532.25
2022-11-22T09:39:03.511Z,92532.25
2022-11-22T09:41:30.131Z,92532.63
2022-11-22T09:44:05.643Z,92530.06
2022-11-22T09:46:41.201Z,92527.91
2022-11-22T09:49:27.496Z,92524.16
2022-11-22T09:52:06.912Z,92523.84
2022-11-22T09:54:51.142Z,92523.13
2022-11-22T09:57:27.582Z,92513.09
2022-11-22T10:00:21.682Z,92508.97
2022-11-22T10:03:09.641Z,92514.06
2022-11-22T10:05:50.716Z,92511.38
2022-11-22T10:08:39.820Z,92510.59
2022-11-22T10:11:21.491Z,92512.91
2022-11-22T10:13:56.584Z,92504.78
2022-11-22T10:16:34.842Z,92505.34
2022-11-22T10:19:16.130Z,92511.41
2022-11-22T10:21:44.088Z,92507.44
2022-11-22T10:24:15.404Z,92499.84
2022-11-22T10:26:42.953Z,92507.28
2022-11-22T10:29:30.597Z,92511.78
2022-11-22T10:32:35.184Z,92508.69
2022-11-22T10:35:34.564Z,92518.75
2022-11-22T10:38:23.893Z,92502.59
2022-11-22T10:41:18.283Z,92497.84
2022-11-22T10:44:22.943Z,92488.72
2022-11-22T10:47:30.256Z,92464.88
2022-11-22T10:50:17.332Z,92460.66
2022-11-22T10:52:44.696Z,92448.84
2022-11-22T10:55:16.696Z,92438.63
2022-11-22T10:58:15.213Z,92433.56
2022-11-22T11:00:45.707Z,92436.28
2022-11-22T11:03:20.874Z,92434.06
2022-11-22T11:09:47.855Z,92424.91
2022-11-22T11:11:41.654Z,92423.94
2022-11-22T11:14:17.212Z,92417.06
2022-11-22T11:16:44.439Z,92411.97
2022-11-22T11:19:11.125Z,92407.06
2022-11-22T11:21:38.191Z,92403.38
2022-11-22T11:24:14.625Z,92412.47
2022-11-22T11:26:43.540Z,92414.44
2022-11-22T11:29:16.750Z,92406.97
2022-11-22T11:32:13.350Z,92399.06
2022-11-22T11:35:00.618Z,92405.31
2022-11-22T11:37:36.881Z,92401.81
2022-11-22T11:40:05.401Z,92397.72
2022-11-22T11:42:33.934Z,92399.09
2022-11-22T11:45:30.904Z,92394.19
2022-11-22T11:47:57.700Z,92382.38
2022-11-22T11:50:28.552Z,92386.72
2022-11-22T11:52:57.492Z,92388.19
2022-11-22T11:55:24.598Z,92392.72
2022-11-22T11:57:52.760Z,92389.03
2022-11-22T12:00:26.022Z,92389.63
2022-11-22T12:02:58.864Z,92375.25
2022-11-22T12:05:31.314Z,92386.06
2022-11-22T12:07:58.803Z,92380.78
2022-11-22T12:10:35.163Z,92378.53
2022-11-22T12:13:30.270Z,92373.00
2022-11-22T12:16:19.480Z,92380.16
2022-11-22T12:19:08.043Z,92384.50
2022-11-22T12:21:57.796Z,92377.81
2022-11-22T12:24:48.463Z,92377.94
2022-11-22T12:27:14.622Z,92388.63
2022-11-22T12:29:43.755Z,92398.22
2022-11-22T12:32:23.400Z,92404.91
2022-11-22T12:35:00.773Z,92399.38
2022-11-22T12:37:41.704Z,92402.31
2022-11-22T12:40:21.382Z,92411.59
2022-11-22T12:42:50.857Z,92414.75
2022-11-22T12:45:39.003Z,92424.59
2022-11-22T12:48:09.115Z,92426.22
2022-11-22T12:50:45.050Z,92438.03
2022-11-22T12:53:18.073Z,92441.78
2022-11-22T12:55:52.412Z,92446.69
2022-11-22T12:58:31.761Z,92452.22
2022-11-22T13:00:58.482Z,92458.91
2022-11-22T13:03:33.999Z,92445.94
2022-11-22T13:06:04.101Z,92444.72
2022-11-22T13:09:06.583Z,92448.50
2022-11-22T13:11:48.088Z,92444.97
2022-11-22T13:14:31.451Z,92439.03
2022-11-22T13:16:59.160Z,92428.97
2022-11-22T13:19:27.156Z,92438.16
2022-11-22T13:22:23.288Z,92433.66
2022-11-22T13:25:04.921Z,92437.97
2022-11-22T13:27:35.073Z,92437.44
2022-11-22T13:30:02.410Z,92432.53
2022-11-22T13:32:33.444Z,92418.31
2022-11-22T13:35:11.967Z,92414.94
2022-11-22T13:37:41.860Z,92416.31
2022-11-22T13:40:38.414Z,92418.66
2022-11-22T13:43:30.921Z,92416.19
2022-11-22T13:46:01.869Z,92410.09
2022-11-22T13:48:40.861Z,92419.31
2022-11-22T13:51:13.269Z,92424.13
2022-11-22T13:53:40.608Z,92430.97
2022-11-22T13:56:16.668Z,92429.13
2022-11-22T13:58:52.429Z,92445.09
2022-11-22T14:01:52.296Z,92442.25
2022-11-22T14:04:25.729Z,92435.59
2022-11-22T14:07:02.459Z,92444.06
2022-11-22T14:09:44.331Z,92443.53
2022-11-22T14:12:11.249Z,92441.56
2022-11-22T14:14:46.356Z,92450.16
2022-11-22T14:17:41.778Z,92441.28
2022-11-22T14:20:36.483Z,92443.66
2022-11-22T14:23:15.493Z,92448.59
2022-11-22T14:25:57.462Z,92454.28
2022-11-22T14:29:01.880Z,92441.88
2022-11-22T14:31:33.771Z,92448.34
2022-11-22T14:34:23.564Z,92442.66
2022-11-22T14:37:15.535Z,92446.00
2022-11-22T14:39:45.169Z,92445.63
2022-11-22T14:42:47.167Z,92446.31
2022-11-22T14:45:22.913Z,92443.47
2022-11-22T14:47:53.194Z,92452.53
2022-11-22T14:50:23.003Z,92449.44
2022-11-22T14:52:49.874Z,92450.03
2022-11-22T14:55:19.744Z,92458.81
2022-11-22T14:57:49.027Z,92454.09
2022-11-22T15:00:23.734Z,92461.59
2022-11-22T15:03:05.319Z,92456.91
2022-11-22T15:09:17.240Z,92460.19
2022-11-22T15:09:42.143Z,92467.16
2022-11-22T15:12:28.551Z,92476.59
2022-11-22T15:57:35.924Z,92525.63
2022-11-22T16:00:03.096Z,92530.53
2022-11-22T16:02:32.058Z,92527.78
2022-11-22T16:06:03.532Z,92540.75
2022-11-22T16:07:55.307Z,92534.47
2022-11-22T16:10:33.565Z,92548.03
2022-11-22T16:13:12.660Z,92547.84
2022-11-22T16:15:39.692Z,92547.28
2022-11-22T16:18:23.772Z,92550.00
2022-11-22T16:21:12.208Z,92545.09
2022-11-22T16:23:39.952Z,92547.28
2022-11-22T16:26:39.460Z,92550.00
2022-11-22T16:29:29.372Z,92558.66
2022-11-22T16:32:25.881Z,92567.53
2022-11-22T16:35:08.541Z,92560.88
2022-11-22T16:37:47.716Z,92557.91
2022-11-22T16:40:15.200Z,92561.63
2022-11-22T16:42:42.695Z,92553.59
2022-11-22T16:45:16.409Z,92545.16
2022-11-22T16:47:43.901Z,92566.34
2022-11-22T16:50:14.289Z,92564.38
2022-11-22T16:52:42.232Z,92560.44
2022-11-22T16:55:19.381Z,92552.97
2022-11-22T16:57:46.322Z,92565.97
2022-11-22T17:00:13.390Z,92562.81
2022-11-22T17:02:40.256Z,92566.94
2022-11-22T17:05:07.883Z,92565.16
2022-11-22T17:07:34.668Z,92568.72
2022-11-22T17:10:01.428Z,92571.25
2022-11-22T17:12:33.533Z,92568.91
2022-11-22T17:15:00.575Z,92573.41
2022-11-22T17:17:27.498Z,92566.34
2022-11-22T17:19:54.168Z,92571.59
2022-11-22T17:22:21.180Z,92567.91
2022-11-22T17:24:47.819Z,92563.56
2022-11-22T17:27:15.193Z,92575.16
2022-11-22T17:29:50.457Z,92563.78
2022-11-22T17:32:17.494Z,92575.38
2022-11-22T17:34:44.054Z,92568.31
2022-11-22T17:37:14.056Z,92576.56
2022-11-22T17:39:40.870Z,92571.00
2022-11-22T17:42:07.654Z,92568.09
2022-11-22T17:44:34.489Z,92572.22
2022-11-22T17:47:01.358Z,92574.59
2022-11-22T17:49:29.007Z,92577.00
2022-11-22T17:51:55.902Z,92581.13
2022-11-22T17:54:22.521Z,92583.72
2022-11-22T17:56:49.255Z,92568.56
2022-11-22T17:59:15.865Z,92586.22
2022-11-22T18:01:43.300Z,92582.13
2022-11-22T18:04:10.138Z,92584.88
2022-11-22T18:06:36.740Z,92590.19
2022-11-22T18:09:03.592Z,92587.41
2022-11-22T18:11:30.311Z,92582.88
2022-11-22T18:13:56.992Z,92588.97
2022-11-22T18:16:28.450Z,92582.66
2022-11-22T18:18:57.399Z,92586.41
2022-11-22T18:21:26.791Z,92580.91
2022-11-22T18:23:53.618Z,92593.31
2022-11-22T18:26:38.873Z,92582.88
2022-11-22T18:31:54.273Z,92581.69
2022-11-22T18:34:22.279Z,92568.31
2022-11-22T18:36:55.205Z,92584.59
2022-11-22T18:39:23.100Z,92589.91
2022-11-22T18:41:50.113Z,92588.38
2022-11-22T18:44:16.962Z,92579.31
2022-11-22T18:46:43.761Z,92580.53
2022-11-22T18:49:10.590Z,92584.44
2022-11-22T18:51:37.578Z,92591.94
2022-11-22T18:54:04.801Z,92586.47
2022-11-22T18:56:31.776Z,92597.25
2022-11-22T18:58:58.464Z,92588.97
2022-11-22T19:01:26.431Z,92598.41
2022-11-22T19:03:54.112Z,92596.44
2022-11-22T19:06:20.888Z,92591.53
2022-11-22T19:08:47.882Z,92605.88
2022-11-22T19:11:15.807Z,92593.09
2022-11-22T19:13:43.817Z,92603.75
2022-11-22T19:16:16.146Z,92595.88
2022-11-22T19:18:43.681Z,92602.94
2022-11-22T19:21:15.449Z,92598.22
2022-11-22T19:23:42.503Z,92602.16
2022-11-22T19:26:14.389Z,92611.59
2022-11-22T19:28:42.494Z,92604.72
2022-11-22T19:31:14.560Z,92607.22
2022-11-22T19:33:41.295Z,92607.06
2022-11-22T19:36:12.340Z,92603.72
2022-11-22T19:38:39.146Z,92603.53
2022-11-22T19:41:14.279Z,92609.81
2022-11-22T19:47:38.399Z,92613.38
2022-11-22T19:50:05.711Z,92622.22
2022-11-22T19:52:32.556Z,92618.28
2022-11-22T19:55:00.450Z,92613.97
2022-11-22T19:57:27.067Z,92594.53
2022-11-22T19:59:59.779Z,92617.91
2022-11-22T20:02:26.854Z,92615.56
2022-11-22T20:04:53.550Z,92618.69
2022-11-22T20:07:20.301Z,92624.41
2022-11-22T20:09:48.008Z,92625.78
2022-11-22T20:12:16.135Z,92606.72
2022-11-22T20:14:43.691Z,92617.69
2022-11-22T20:17:10.535Z,92617.69
2022-11-22T20:19:38.327Z,92623.41
2022-11-22T20:22:05.062Z,92626.75
2022-11-22T20:24:32.736Z,92602.94
2022-11-22T20:27:03.124Z,92617.69
2022-11-22T20:29:29.801Z,92626.53
2022-11-22T20:31:59.166Z,92615.53
2022-11-22T20:34:25.923Z,92617.47
2022-11-22T20:36:52.830Z,92613.13
2022-11-22T20:39:22.248Z,92623.78
2022-11-22T20:41:54.083Z,92633.25
2022-11-22T20:44:34.888Z,92625.38
2022-11-22T20:47:01.777Z,92629.72
2022-11-22T20:49:30.788Z,92635.41
2022-11-22T20:51:57.772Z,92638.34
2022-11-22T20:54:25.508Z,92645.25
2022-11-22T20:56:52.232Z,92643.47
2022-11-22T20:59:18.998Z,92632.06
2022-11-22T21:01:47.182Z,92636.19
2022-11-22T21:04:18.634Z,92640.88
2022-11-22T21:06:46.384Z,92635.22
2022-11-22T21:09:15.100Z,92649.16
2022-11-22T21:11:45.411Z,92639.34
2022-11-22T21:14:12.743Z,92647.22
2022-11-22T21:16:39.813Z,92643.09
2022-11-22T21:19:06.683Z,92654.09
2022-11-22T21:21:35.883Z,92661.59
2022-11-22T21:24:04.342Z,92662.38
2022-11-22T21:26:31.456Z,92645.81
2022-11-22T21:28:59.443Z,92653.72
2022-11-22T21:31:27.409Z,92657.44
2022-11-22T21:33:54.564Z,92657.25
2022-11-22T21:36:21.735Z,92651.91
2022-11-22T21:38:48.952Z,92650.75
2022-11-22T21:44:05.068Z,92649.19
2022-11-22T21:46:31.706Z,92645.03
2022-11-22T21:48:58.456Z,92642.88
2022-11-22T21:51:26.339Z,92646.59
2022-11-22T21:53:57.682Z,92647.97
2022-11-22T21:56:24.260Z,92635.59
2022-11-22T21:58:50.980Z,92649.16
2022-11-22T22:01:17.598Z,92658.22
2022-11-22T22:03:44.206Z,92655.28
2022-11-22T22:06:10.786Z,92652.69
2022-11-22T22:08:37.523Z,92660.00
2022-11-22T22:11:05.470Z,92652.53
2022-11-22T22:13:32.647Z,92657.44
2022-11-22T22:16:01.052Z,92655.66
2022-11-22T22:18:35.489Z,92653.50
2022-11-22T22:21:04.609Z,92661.59
2022-11-22T22:23:32.197Z,92659.22
2022-11-22T22:26:03.592Z,92655.66
2022-11-22T22:28:31.273Z,92650.91
2022-11-22T22:31:10.485Z,92650.72
2022-11-22T22:33:39.243Z,92654.44
2022-11-22T22:36:07.108Z,92664.69
2022-11-22T22:38:34.359Z,92671.03
2022-11-22T22:41:03.614Z,92663.91
2022-11-22T22:43:35.151Z,92662.16
2022-11-22T22:46:07.286Z,92662.75
2022-11-22T22:48:34.533Z,92662.75
2022-11-22T22:51:06.377Z,92664.72
2022-11-22T22:53:33.028Z,92663.56
2022-11-22T22:55:59.693Z,92666.69
2022-11-22T22:58:26.611Z,92660.00
2022-11-22T23:00:53.391Z,92661.97
2022-11-22T23:03:20.052Z,92658.03
2022-11-22T23:05:47.927Z,92650.97
2022-11-22T23:08:14.522Z,92652.72
2022-11-22T23:10:42.304Z,92663.94
2022-11-22T23:13:08.876Z,92660.59
2022-11-22T23:15:57.452Z,92662.75
2022-11-22T23:18:25.119Z,92652.31
2022-11-22T23:20:51.733Z,92671.78
2022-11-22T23:23:18.468Z,92676.31
2022-11-22T23:25:45.067Z,92672.97
2022-11-22T23:28:11.652Z,92658.81
2022-11-22T23:30:38.213Z,92676.50
2022-11-22T23:33:04.794Z,92677.50
2022-11-22T23:35:34.634Z,92678.91
2022-11-22T23:38:01.208Z,92682.59
2022-11-22T23:40:27.838Z,92675.50
2022-11-22T23:42:57.314Z,92668.03
2022-11-22T23:45:24.217Z,92671.56
2022-11-22T23:47:51.988Z,92662.38
2022-11-22T23:50:19.026Z,92677.88
2022-11-22T23:52:45.598Z,92666.06
2022-11-22T23:55:12.232Z,92675.72
2022-11-22T23:57:38.840Z,92676.09
